Time;durP1;ratioP1;P1;durP2;ratioP2;P2;SDS_P1;SDS_P2;PMS_P1;PMS_P2;Temp;Humidity;BMP_temperature;BMP_pressure;BME280_temperature;BME280_humidity;BME280_pressure;Samples;Min_cycle;Max_cycle;Signal;HPM_P1;HPM_P2
2024/02/03 00:03:01;;;;;;;0.10;0.10;;;;;;;-145.06;100.00;54198.19;10410875;28;20057;-68
2024/02/03 00:08:01;;;;;;;0.10;0.10;;;;;;;-145.06;100.00;54271.09;10409291;28;20286;-68
2024/02/03 00:13:02;;;;;;;0.10;0.10;;;;;;;-145.06;100.00;54429.09;10411257;28;20025;-68
2024/02/03 00:18:02;;;;;;;0.00;0.00;;;;;;;-145.06;100.00;54497.94;10419219;28;20043;-68
2024/02/03 00:23:03;;;;;;;0.10;0.10;;;;;;;-145.06;100.00;54562.78;10411073;28;20079;-68
2024/02/03 00:28:03;;;;;;;0.10;0.10;;;;;;;-145.06;100.00;54682.28;10408133;28;20045;-68
2024/02/03 00:33:04;;;;;;;0.00;0.00;;;;;;;-145.06;100.00;54797.72;10410916;28;20701;-68
2024/02/03 00:38:05;;;;;;;0.10;0.10;;;;;;;-145.06;100.00;54915.22;10409198;28;20045;-68
2024/02/03 00:43:05;;;;;;;0.10;0.10;;;;;;;-145.06;100.00;55014.47;10410679;28;20071;-68
2024/02/03 00:48:07;;;;;;;0.10;0.10;;;;;;;-145.06;100.00;55131.97;10408930;28;20063;-68
2024/02/03 00:53:07;;;;;;;0.10;0.10;;;;;;;-145.06;100.00;55144.13;10407045;28;20877;-68
2024/02/03 00:58:08;;;;;;;0.10;0.10;;;;;;;-145.06;100.00;55253.53;10411488;28;20017;-68
2024/02/03 01:03:08;;;;;;;0.10;0.10;;;;;;;-145.06;100.00;55342.66;10406826;28;20060;-68
2024/02/03 01:08:09;;;;;;;0.00;0.00;;;;;;;-145.06;100.00;55409.53;10409347;28;20052;-68
2024/02/03 01:13:09;;;;;;;0.00;0.00;;;;;;;-145.06;100.00;55452.06;10409712;28;20108;-68
2024/02/03 01:18:10;;;;;;;0.10;0.10;;;;;;;-145.06;100.00;55516.91;10404190;28;20394;-68
2024/02/03 01:23:10;;;;;;;0.10;0.10;;;;;;;-145.06;100.00;55545.25;10409549;28;20025;-68
2024/02/03 01:28:10;;;;;;;0.00;0.00;;;;;;;-145.06;100.00;55484.47;10405057;28;20302;-68
2024/02/03 01:33:11;;;;;;;0.10;0.10;;;;;;;-145.06;100.00;55472.31;10401208;28;20155;-68
2024/02/03 01:38:12;;;;;;;0.10;0.10;;;;;;;-145.06;100.00;55464.22;10406776;28;20051;-68
2024/02/03 01:43:13;;;;;;;0.10;0.10;;;;;;;-145.06;100.00;55354.81;10404757;28;20033;-68
2024/02/03 01:48:14;;;;;;;0.10;0.10;;;;;;;-145.06;100.00;55302.16;10407822;28;20422;-68
2024/02/03 01:53:17;;;;;;;0.10;0.10;;;;;;;-145.06;100.00;55281.88;10398449;28;20030;-68
2024/02/03 01:58:17;;;;;;;0.10;0.10;;;;;;;-145.06;100.00;55213.00;10405472;28;20051;-68
2024/02/03 02:03:18;;;;;;;0.00;0.00;;;;;;;-145.06;100.00;55136.03;10404908;28;20446;-68
2024/02/03 02:08:19;;;;;;;0.00;0.00;;;;;;;-145.06;100.00;55024.59;10405311;28;20503;-68
2024/02/03 02:13:19;;;;;;;0.10;0.10;;;;;;;-145.06;100.00;54913.19;10405212;28;20045;-68
2024/02/03 02:18:20;;;;;;;0.10;0.10;;;;;;;-145.06;100.00;54820.00;10401522;28;20049;-68
2024/02/03 02:23:20;;;;;;;0.10;0.10;;;;;;;-145.06;100.00;54763.31;10407690;28;20256;-68
2024/02/03 02:28:20;;;;;;;0.10;0.10;;;;;;;-145.06;100.00;54678.22;10405873;28;20024;-68
2024/02/03 02:33:21;;;;;;;0.10;0.10;;;;;;;-145.06;100.00;54601.25;10404228;28;20463;-68
2024/02/03 02:38:21;;;;;;;0.00;0.00;;;;;;;-145.06;100.00;54532.38;10405667;28;20018;-68
2024/02/03 02:43:22;;;;;;;0.10;0.10;;;;;;;-145.06;100.00;54504.03;10408273;28;20471;-68
2024/02/03 02:48:22;;;;;;;0.10;0.10;;;;;;;-145.06;100.00;54449.34;10399355;28;20029;-68
2024/02/03 02:53:22;;;;;;;0.10;0.10;;;;;;;-145.06;100.00;54418.97;10407655;28;20526;-68
2024/02/03 02:58:23;;;;;;;0.00;0.00;;;;;;;-145.06;100.00;54354.16;10407045;28;20018;-68
2024/02/03 03:03:23;;;;;;;0.00;0.00;;;;;;;-145.06;100.00;54350.09;10405301;28;20506;-68
2024/02/03 03:08:23;;;;;;;0.10;0.10;;;;;;;-145.06;100.00;54327.81;10406486;28;20040;-68
2024/02/03 03:13:24;;;;;;;0.00;0.00;;;;;;;-145.06;100.00;54265.03;10402188;28;20029;-68
2024/02/03 03:18:24;;;;;;;0.10;0.10;;;;;;;-145.06;100.00;54248.84;10404666;28;20029;-68
2024/02/03 03:23:24;;;;;;;0.08;0.08;;;;;;;-145.06;100.00;54250.84;10408172;28;20029;-68
2024/02/03 03:28:25;;;;;;;0.00;0.00;;;;;;;-145.06;100.00;54192.13;10404719;28;20021;-68
2024/02/03 03:33:25;;;;;;;0.10;0.10;;;;;;;-145.06;100.00;54186.03;10413850;28;20052;-68
2024/02/03 03:38:26;;;;;;;0.00;0.00;;;;;;;-145.06;100.00;54167.81;10411683;28;20459;-68
2024/02/03 03:43:27;;;;;;;0.10;0.10;;;;;;;-145.06;100.00;54137.44;10411659;28;20033;-68
2024/02/03 03:48:27;;;;;;;0.10;0.10;;;;;;;-145.06;100.00;54171.88;10411539;28;20018;-68
2024/02/03 03:53:27;;;;;;;0.10;0.10;;;;;;;-145.06;100.00;54179.97;10412988;28;20025;-68
2024/02/03 03:58:27;;;;;;;0.00;0.00;;;;;;;-145.06;100.00;54131.34;10411899;28;20105;-67
2024/02/03 04:03:28;;;;;;;0.00;0.00;;;;;;;-145.06;100.00;54135.41;10411441;28;20033;-70
2024/02/03 04:08:28;;;;;;;0.10;0.10;;;;;;;-145.06;100.00;54139.47;10410959;28;20021;-70
2024/02/03 04:13:28;;;;;;;0.00;0.00;;;;;;;-145.06;100.00;54080.72;10411070;28;20487;-70
2024/02/03 04:18:29;;;;;;;0.00;0.00;;;;;;;-145.06;100.00;54068.56;10410511;28;20013;-70
2024/02/03 04:23:29;;;;;;;0.10;0.10;;;;;;;-145.06;100.00;54062.50;10410961;28;20072;-70
2024/02/03 04:28:29;;;;;;;0.10;0.10;;;;;;;-145.06;100.00;54066.56;10410355;28;20055;-70
2024/02/03 04:33:29;;;;;;;0.10;0.10;;;;;;;-145.06;100.00;54076.69;10410507;28;20032;-71
2024/02/03 04:38:30;;;;;;;0.10;0.10;;;;;;;-145.06;100.00;54054.41;10410203;28;20017;-69
2024/02/03 04:43:31;;;;;;;0.10;0.10;;;;;;;-145.06;100.00;54030.09;10409625;28;20048;-69
2024/02/03 04:48:31;;;;;;;0.00;0.00;;;;;;;-145.06;100.00;54022.00;10409686;28;20025;-69
2024/02/03 04:53:31;;;;;;;0.10;0.10;;;;;;;-145.06;100.00;54003.78;10407865;28;20029;-68
2024/02/03 04:58:31;;;;;;;0.10;0.10;;;;;;;-145.06;100.00;53983.53;10408680;28;20021;-69
2024/02/03 05:03:32;;;;;;;0.10;0.10;;;;;;;-145.06;100.00;53977.44;10408736;28;20022;-68
2024/02/03 05:08:34;;;;;;;0.00;0.00;;;;;;;-145.06;100.00;54005.78;10407233;28;20068;-70
2024/02/03 05:13:35;;;;;;;0.05;0.05;;;;;;;-145.06;100.00;53969.34;10404856;28;20194;-68
2024/02/03 05:18:35;;;;;;;0.10;0.10;;;;;;;-145.06;100.00;53985.53;10415927;28;20112;-66
2024/02/03 05:23:35;;;;;;;0.10;0.10;;;;;;;-145.06;100.00;53973.41;10408366;28;20336;-66
2024/02/03 05:28:36;;;;;;;0.10;0.10;;;;;;;-145.06;100.00;53981.50;10408291;28;20025;-66
2024/02/03 05:33:36;;;;;;;0.10;0.10;;;;;;;-145.06;100.00;53981.50;10409477;28;20399;-66
2024/02/03 05:38:36;;;;;;;0.10;0.10;;;;;;;-145.06;100.00;53932.88;10407979;28;20030;-66
2024/02/03 05:43:36;;;;;;;0.00;0.00;;;;;;;-145.06;100.00;53961.25;10408496;28;20021;-66
2024/02/03 05:48:37;;;;;;;0.10;0.10;;;;;;;-145.06;100.00;53965.28;10410899;28;20025;-66
2024/02/03 05:53:37;;;;;;;0.00;0.00;;;;;;;-145.06;100.00;53916.69;10407609;28;20410;-67
2024/02/03 05:58:37;;;;;;;0.10;0.10;;;;;;;-145.06;100.00;53900.50;10410458;28;20029;-67
2024/02/03 06:03:37;;;;;;;0.10;0.10;;;;;;;-145.06;100.00;53926.81;10407826;28;20030;-67
2024/02/03 06:08:39;;;;;;;0.10;0.10;;;;;;;-145.06;100.00;53916.69;10407435;28;20493;-67
2024/02/03 06:13:39;;;;;;;0.10;0.10;;;;;;;-145.06;100.00;53912.63;10407394;28;20383;-65
2024/02/03 06:18:40;;;;;;;0.10;0.10;;;;;;;-145.06;100.00;53870.09;10407183;28;20041;-66
2024/02/03 06:23:41;;;;;;;0.10;0.10;;;;;;;-145.06;100.00;53874.16;10407205;28;20051;-67
2024/02/03 06:28:41;;;;;;;0.10;0.10;;;;;;;-145.06;100.00;53831.63;10406901;28;20029;-67
2024/02/03 06:33:41;;;;;;;0.00;0.00;;;;;;;-145.06;100.00;53855.94;10409238;28;20258;-67
2024/02/03 06:38:41;;;;;;;0.00;0.00;;;;;;;-145.06;100.00;53859.97;10407187;28;20041;-67
2024/02/03 06:43:42;;;;;;;0.00;0.00;;;;;;;-145.06;100.00;53835.69;10403227;28;20032;-67
2024/02/03 06:48:42;;;;;;;0.10;0.10;;;;;;;-145.06;100.00;53827.59;10405966;28;20025;-66
2024/02/03 06:53:42;;;;;;;0.03;0.03;;;;;;;-145.06;100.00;53851.88;10403964;28;20028;-67
2024/02/03 06:58:43;;;;;;;0.00;0.00;;;;;;;-145.06;100.00;53868.09;10406305;28;20033;-67
2024/02/03 07:03:43;;;;;;;0.00;0.00;;;;;;;-145.06;100.00;53841.75;10405133;28;20026;-67
2024/02/03 07:08:43;;;;;;;0.10;0.10;;;;;;;-145.06;100.00;53878.22;10413584;28;20029;-67
2024/02/03 07:13:44;;;;;;;0.10;0.10;;;;;;;-145.06;100.00;53868.09;10413828;28;20033;-67
2024/02/03 07:18:44;;;;;;;0.10;0.10;;;;;;;-145.06;100.00;53884.28;10407917;28;20018;-67
2024/02/03 07:23:44;;;;;;;0.10;0.10;;;;;;;-145.06;100.00;53872.13;10409722;28;20499;-67
2024/02/03 07:28:44;;;;;;;0.10;0.10;;;;;;;-145.06;100.00;53864.03;10410827;28;20407;-67
2024/02/03 07:33:45;;;;;;;0.00;0.00;;;;;;;-145.06;100.00;53900.50;10411390;28;20094;-66
2024/02/03 07:38:45;;;;;;;0.10;0.10;;;;;;;-145.06;100.00;53904.53;10412838;28;20033;-67
2024/02/03 07:43:45;;;;;;;0.10;0.10;;;;;;;-145.06;100.00;53910.63;10412904;28;20112;-67
2024/02/03 07:48:46;;;;;;;0.00;0.00;;;;;;;-145.06;100.00;53900.50;10409890;28;20033;-67
2024/02/03 07:53:46;;;;;;;0.10;0.10;;;;;;;-145.06;100.00;53908.59;10412694;28;20025;-67
2024/02/03 07:58:46;;;;;;;0.10;0.10;;;;;;;-145.06;100.00;53930.88;10417799;28;20036;-67
2024/02/03 08:03:48;;;;;;;0.00;0.00;;;;;;;-145.06;100.00;53912.63;10412552;28;20021;-67
2024/02/03 08:08:48;;;;;;;0.00;0.00;;;;;;;-145.06;100.00;53916.69;10411370;28;20029;-67
2024/02/03 08:13:48;;;;;;;0.00;0.00;;;;;;;-145.06;100.00;53953.13;10408011;28;20044;-67
2024/02/03 08:18:49;;;;;;;0.00;0.00;;;;;;;-145.06;100.00;53882.25;10410604;28;20021;-67
2024/02/03 08:23:49;;;;;;;0.10;0.10;;;;;;;-145.06;100.00;53876.19;10408497;28;20104;-67
2024/02/03 08:28:49;;;;;;;0.00;0.00;;;;;;;-145.06;100.00;53874.16;10411209;28;20036;-67
2024/02/03 08:33:49;;;;;;;0.10;0.10;;;;;;;-145.06;100.00;53872.13;10411152;28;20490;-66
2024/02/03 08:38:50;;;;;;;0.10;0.10;;;;;;;-145.06;100.00;53866.06;10408672;28;20375;-67
2024/02/03 08:43:50;;;;;;;0.10;0.10;;;;;;;-145.06;100.00;53884.28;10408108;28;20525;-67
2024/02/03 08:48:50;;;;;;;0.10;0.10;;;;;;;-145.06;100.00;53839.72;10405335;28;20342;-66
2024/02/03 08:53:51;;;;;;;0.00;0.00;;;;;;;-145.06;100.00;53874.16;10406967;28;20047;-67
2024/02/03 08:58:51;;;;;;;0.00;0.00;;;;;;;-145.06;100.00;53853.91;10404757;28;20108;-67
2024/02/03 09:03:51;;;;;;;0.10;0.10;;;;;;;-145.06;100.00;53839.72;10408443;28;20105;-67
2024/02/03 09:08:52;;;;;;;0.10;0.10;;;;;;;-145.06;100.00;53817.47;10409042;28;20034;-66
2024/02/03 09:13:52;;;;;;;0.10;0.10;;;;;;;-145.06;100.00;53827.59;10409358;28;20029;-67
2024/02/03 09:18:52;;;;;;;0.10;0.10;;;;;;;-145.06;100.00;53809.34;10408739;28;20014;-65
2024/02/03 09:23:53;;;;;;;0.10;0.10;;;;;;;-145.06;100.00;53787.06;10408612;28;20021;-67
2024/02/03 09:28:55;;;;;;;0.00;0.00;;;;;;;-145.06;100.00;53789.09;10407493;28;20022;-67
2024/02/03 09:33:56;;;;;;;0.10;0.10;;;;;;;-145.06;100.00;53762.78;10403169;28;20029;-66
2024/02/03 09:38:58;;;;;;;0.10;0.10;;;;;;;-145.06;100.00;53791.13;10408160;28;20101;-66
2024/02/03 09:43:59;;;;;;;0.10;0.10;;;;;;;-145.06;100.00;53774.94;10406280;28;20376;-67
2024/02/03 09:48:59;;;;;;;0.00;0.00;;;;;;;-145.06;100.00;53754.69;10407442;28;20025;-67
2024/02/03 09:54:00;;;;;;;0.10;0.10;;;;;;;-145.06;100.00;53742.53;10406117;28;20025;-67
2024/02/03 09:59:00;;;;;;;0.10;0.10;;;;;;;-145.06;100.00;53746.56;10403511;28;20022;-67
2024/02/03 10:04:00;;;;;;;0.10;0.10;;;;;;;-145.06;100.00;53752.66;10404424;28;20254;-66
2024/02/03 10:09:01;;;;;;;0.10;0.10;;;;;;;-145.06;100.00;53710.13;10406853;28;20022;-67
2024/02/03 10:14:02;;;;;;;0.10;0.10;;;;;;;-145.06;100.00;53718.22;10407075;28;20441;-67
2024/02/03 10:19:03;;;;;;;0.00;0.00;;;;;;;-145.06;100.00;53724.31;10406597;28;20104;-66
2024/02/03 10:24:04;;;;;;;0.10;0.10;;;;;;;-145.06;100.00;53714.19;10407271;28;20025;-66
2024/02/03 10:29:05;;;;;;;0.10;0.10;;;;;;;-145.06;100.00;53700.00;10406592;28;20037;-67
2024/02/03 10:34:06;;;;;;;0.10;0.10;;;;;;;-145.06;100.00;53708.09;10406296;28;20025;-67
2024/02/03 10:39:06;;;;;;;0.00;0.00;;;;;;;-145.06;100.00;53685.81;10407374;28;20101;-66
2024/02/03 10:44:07;;;;;;;0.00;0.00;;;;;;;-145.06;100.00;53702.03;10414756;28;20028;-67
2024/02/03 10:49:15;;;;;;;0.10;0.10;;;;;;;-145.06;100.00;53693.94;10413950;28;20287;-66
2024/02/03 10:54:23;;;;;;;0.10;0.10;;;;;;;-145.06;100.00;53685.81;10415262;28;21316;-67
2024/02/03 10:59:24;;;;;;;0.10;0.10;;;;;;;-145.06;100.00;53710.13;10413151;28;20021;-67
2024/02/03 11:04:24;;;;;;;0.10;0.10;;;;;;;-145.06;100.00;53722.28;10414250;28;20029;-67
2024/02/03 11:09:29;;;;;;;0.00;0.00;;;;;;;-145.06;100.00;53689.88;10413661;28;20017;-67
2024/02/03 11:14:32;;;;;;;0.10;0.10;;;;;;;-145.06;100.00;53689.88;10412854;28;20116;-67
2024/02/03 11:19:35;;;;;;;0.00;0.00;;;;;;;-145.06;100.00;53645.31;10412512;28;20026;-66
2024/02/03 11:24:36;;;;;;;0.10;0.10;;;;;;;-145.06;100.00;53621.03;10411755;28;20467;-67
2024/02/03 11:29:37;;;;;;;0.08;0.08;;;;;;;-145.06;100.00;53612.94;10409245;28;20030;-66
2024/02/03 11:34:37;;;;;;;0.10;0.10;;;;;;;-145.06;100.00;53606.84;10412786;28;20079;-66
2024/02/03 11:39:38;;;;;;;0.00;0.00;;;;;;;-145.06;100.00;53612.94;10409657;28;20070;-67
2024/02/03 11:44:55;;;;;;;0.10;0.10;;;;;;;-145.06;100.00;53627.09;10411675;28;20260;-66
2024/02/03 11:49:56;;;;;;;0.00;0.00;;;;;;;-145.06;100.00;53655.44;10410352;28;20029;-67
2024/02/03 11:54:56;;;;;;;0.10;0.10;;;;;;;-145.06;100.00;53661.53;10410652;28;20033;-67
2024/02/03 12:00:05;;;;;;;0.00;0.00;;;;;;;-145.06;100.00;53623.06;10410657;28;20079;-66
2024/02/03 12:05:05;;;;;;;0.10;0.10;;;;;;;-145.06;100.00;53625.06;10410151;28;20363;-66
2024/02/03 12:10:07;;;;;;;0.00;0.00;;;;;;;-145.06;100.00;53637.22;10409760;28;20032;-66
2024/02/03 12:15:09;;;;;;;0.10;0.10;;;;;;;-145.06;100.00;53616.97;10409754;28;20021;-67
2024/02/03 12:20:24;;;;;;;0.10;0.10;;;;;;;-145.06;100.00;53540.03;10409344;28;20017;-67
2024/02/03 12:25:25;;;;;;;0.00;0.00;;;;;;;-145.06;100.00;53527.88;10409453;28;20021;-66
2024/02/03 12:30:26;;;;;;;0.10;0.10;;;;;;;-145.06;100.00;53517.75;10410808;28;20018;-67
2024/02/03 12:35:26;;;;;;;0.10;0.10;;;;;;;-145.06;100.00;53538.00;10409881;28;20091;-67
2024/02/03 12:40:27;;;;;;;0.00;0.00;;;;;;;-145.06;100.00;53616.97;10408804;28;20260;-67
2024/02/03 12:45:27;;;;;;;0.10;0.10;;;;;;;-145.06;100.00;53619.00;10408486;28;20017;-66
2024/02/03 12:50:27;;;;;;;0.10;0.10;;;;;;;-145.06;100.00;53610.91;10409648;28;20363;-67
2024/02/03 12:55:28;;;;;;;0.10;0.10;;;;;;;-145.06;100.00;53604.81;10408194;28;20017;-66
2024/02/03 13:00:28;;;;;;;0.10;0.10;;;;;;;-145.06;100.00;53641.28;10408864;28;20014;-66
2024/02/03 13:05:28;;;;;;;0.10;0.10;;;;;;;-145.06;100.00;53659.50;10407045;28;20025;-66
2024/02/03 13:10:29;;;;;;;0.10;0.10;;;;;;;-145.06;100.00;53647.34;10408587;28;20021;-67
2024/02/03 13:15:29;;;;;;;0.07;0.07;;;;;;;-145.06;100.00;53641.28;10409294;28;20051;-67
2024/02/03 13:20:30;;;;;;;0.10;0.10;;;;;;;-145.06;100.00;53651.41;10408766;28;20453;-67
2024/02/03 13:25:30;;;;;;;0.10;0.10;;;;;;;-145.06;100.00;53623.06;10408365;28;20025;-67
2024/02/03 13:30:31;;;;;;;0.03;0.03;;;;;;;-145.06;100.00;53584.56;10406227;28;20022;-67
2024/02/03 13:35:31;;;;;;;0.10;0.10;;;;;;;-145.06;100.00;53594.69;10407866;28;20087;-67
2024/02/03 13:40:31;;;;;;;0.10;0.10;;;;;;;-145.06;100.00;53578.50;10407680;28;20029;-67
2024/02/03 13:45:32;;;;;;;0.00;0.00;;;;;;;-145.06;100.00;53612.94;10404947;28;20017;-67
2024/02/03 13:50:32;;;;;;;0.10;0.10;;;;;;;-145.06;100.00;53629.13;10406618;28;20049;-66
2024/02/03 13:55:32;;;;;;;0.10;0.10;;;;;;;-145.06;100.00;53635.19;10407500;28;20027;-67
2024/02/03 14:00:34;;;;;;;0.10;0.10;;;;;;;-145.06;100.00;53633.19;10405144;28;20024;-67
2024/02/03 14:05:35;;;;;;;0.00;0.00;;;;;;;-145.06;100.00;53621.03;10405176;28;20104;-66
2024/02/03 14:10:35;;;;;;;0.10;0.10;;;;;;;-145.06;100.00;53629.13;10406340;28;20030;-67
2024/02/03 14:15:35;;;;;;;0.08;0.08;;;;;;;-145.06;100.00;53625.06;10403983;28;20032;-66
2024/02/03 14:20:36;;;;;;;0.10;0.10;;;;;;;-145.06;100.00;53637.22;10404510;28;20018;-67
2024/02/03 14:25:36;;;;;;;0.10;0.10;;;;;;;-145.06;100.00;53667.59;10405700;28;20386;-66
2024/02/03 14:30:37;;;;;;;0.03;0.03;;;;;;;-145.06;100.00;53679.75;10405681;28;20683;-67
2024/02/03 14:35:37;;;;;;;0.10;0.10;;;;;;;-145.06;100.00;53685.81;10403898;28;20021;-67
2024/02/03 14:40:37;;;;;;;0.00;0.00;;;;;;;-145.06;100.00;53677.72;10405462;28;20462;-67
2024/02/03 14:45:37;;;;;;;0.10;0.10;;;;;;;-145.06;100.00;53700.00;10402580;28;20272;-67
2024/02/03 14:50:38;;;;;;;0.10;0.10;;;;;;;-145.06;100.00;53752.66;10403028;28;20103;-66
2024/02/03 14:55:38;;;;;;;0.10;0.10;;;;;;;-145.06;100.00;53744.56;10405253;28;20022;-67
2024/02/03 15:00:38;;;;;;;0.10;0.10;;;;;;;-145.06;100.00;53742.53;10405717;28;20036;-67
2024/02/03 15:05:39;;;;;;;0.10;0.10;;;;;;;-145.06;100.00;53762.78;10405115;28;20478;-67
2024/02/03 15:10:40;;;;;;;0.10;0.10;;;;;;;-145.06;100.00;53764.81;10401610;28;20022;-66
2024/02/03 15:15:40;;;;;;;0.10;0.10;;;;;;;-145.06;100.00;53789.09;10404830;28;20045;-67
2024/02/03 15:20:40;;;;;;;0.10;0.10;;;;;;;-145.06;100.00;53766.81;10404512;28;20056;-67
2024/02/03 15:25:41;;;;;;;0.10;0.10;;;;;;;-145.06;100.00;53795.19;10403556;28;20017;-67
2024/02/03 15:30:41;;;;;;;0.10;0.10;;;;;;;-145.06;100.00;53831.63;10410045;28;20420;-66
2024/02/03 15:35:41;;;;;;;0.00;0.00;;;;;;;-145.06;100.00;53795.19;10412222;28;20017;-67
2024/02/03 15:40:41;;;;;;;0.10;0.10;;;;;;;-145.06;100.00;53795.19;10411513;28;20264;-66
2024/02/03 15:45:42;;;;;;;0.00;0.00;;;;;;;-145.06;100.00;53811.38;10409655;28;20037;-66
2024/02/03 15:50:42;;;;;;;0.00;0.00;;;;;;;-145.06;100.00;53833.66;10409404;28;20101;-67
2024/02/03 15:55:43;;;;;;;0.03;0.03;;;;;;;-145.06;100.00;53795.19;10409152;28;20080;-67
2024/02/03 16:00:43;;;;;;;0.10;0.10;;;;;;;-145.06;100.00;53811.38;10410979;28;20140;-67
2024/02/03 16:05:44;;;;;;;0.10;0.10;;;;;;;-145.06;100.00;53803.28;10410603;28;20275;-66
2024/02/03 16:10:44;;;;;;;0.10;0.10;;;;;;;-145.06;100.00;53813.41;10410587;28;20324;-67
2024/02/03 16:15:45;;;;;;;0.00;0.00;;;;;;;-145.06;100.00;53815.44;10418984;28;20407;-67
2024/02/03 16:20:46;;;;;;;0.00;0.00;;;;;;;-145.06;100.00;53815.44;10410779;28;20096;-67
2024/02/03 16:25:46;;;;;;;0.10;0.10;;;;;;;-145.06;100.00;53821.50;10408170;28;20036;-66
2024/02/03 16:30:46;;;;;;;0.03;0.03;;;;;;;-145.06;100.00;53845.81;10413278;28;20029;-67
2024/02/03 16:35:47;;;;;;;0.10;0.10;;;;;;;-145.06;100.00;53839.72;10407844;28;20018;-67
2024/02/03 16:40:47;;;;;;;0.10;0.10;;;;;;;-145.06;100.00;53847.84;10408698;28;20025;-67
2024/02/03 16:45:47;;;;;;;0.00;0.00;;;;;;;-145.06;100.00;53876.19;10408919;28;20351;-66
2024/02/03 16:50:48;;;;;;;0.10;0.10;;;;;;;-145.06;100.00;53900.50;10408975;28;20044;-67
2024/02/03 16:55:49;;;;;;;0.10;0.10;;;;;;;-145.06;100.00;53884.28;10408957;28;20103;-67
2024/02/03 17:00:49;;;;;;;0.00;0.00;;;;;;;-145.06;100.00;53876.19;10407120;28;20018;-67
2024/02/03 17:05:49;;;;;;;0.00;0.00;;;;;;;-145.06;100.00;53900.50;10404966;28;20352;-67
2024/02/03 17:10:50;;;;;;;0.03;0.03;;;;;;;-145.06;100.00;53920.75;10406363;28;20018;-67
2024/02/03 17:15:50;;;;;;;0.00;0.00;;;;;;;-145.06;100.00;53916.69;10406197;28;20443;-67
2024/02/03 17:20:50;;;;;;;0.03;0.03;;;;;;;-145.06;100.00;53924.78;10407760;28;20256;-66
2024/02/03 17:25:50;;;;;;;0.00;0.00;;;;;;;-145.06;100.00;53955.16;10407448;28;20017;-67
2024/02/03 17:30:51;;;;;;;0.00;0.00;;;;;;;-145.06;100.00;53963.25;10407914;28;20037;-66
2024/02/03 17:35:51;;;;;;;0.00;0.00;;;;;;;-145.06;100.00;53936.94;10407345;28;20033;-67
2024/02/03 17:40:51;;;;;;;0.10;0.10;;;;;;;-145.06;100.00;54009.84;10406927;28;20044;-66
2024/02/03 17:45:51;;;;;;;0.00;0.00;;;;;;;-145.06;100.00;53975.41;10405553;28;20025;-66
2024/02/03 17:50:52;;;;;;;0.10;0.10;;;;;;;-145.06;100.00;53945.03;10405503;28;20025;-67
2024/02/03 17:55:52;;;;;;;0.00;0.00;;;;;;;-145.06;100.00;53914.66;10404973;28;20028;-66
2024/02/03 18:00:52;;;;;;;0.00;0.00;;;;;;;-145.06;100.00;53961.25;10405077;28;20645;-66
2024/02/03 18:05:53;;;;;;;0.10;0.10;;;;;;;-145.06;100.00;53961.25;10404418;28;20030;-66
2024/02/03 18:10:53;;;;;;;0.10;0.10;;;;;;;-145.06;100.00;53973.41;10406245;28;20060;-66
2024/02/03 18:15:54;;;;;;;0.10;0.10;;;;;;;-145.06;100.00;54001.75;10404507;28;20387;-66
2024/02/03 18:20:54;;;;;;;0.00;0.00;;;;;;;-145.06;100.00;53979.47;10404265;28;20031;-66
2024/02/03 18:25:54;;;;;;;0.00;0.00;;;;;;;-145.06;100.00;53979.47;10405904;28;20022;-67
2024/02/03 18:30:55;;;;;;;0.10;0.10;;;;;;;-145.06;100.00;54032.13;10405723;28;20024;-66
2024/02/03 18:35:55;;;;;;;0.00;0.00;;;;;;;-145.06;100.00;54036.19;10406059;28;20021;-67
2024/02/03 18:40:55;;;;;;;0.10;0.10;;;;;;;-145.06;100.00;54017.94;10403389;28;20480;-67
2024/02/03 18:45:55;;;;;;;0.10;0.10;;;;;;;-145.06;100.00;54026.06;10403370;28;20094;-67
2024/02/03 18:50:56;;;;;;;0.00;0.00;;;;;;;-145.06;100.00;54044.28;10404180;28;20036;-67
2024/02/03 18:55:56;;;;;;;0.10;0.10;;;;;;;-145.06;100.00;54015.91;10405267;28;20013;-67
2024/02/03 19:00:57;;;;;;;0.00;0.00;;;;;;;-145.06;100.00;54024.03;10405731;28;20363;-67
2024/02/03 19:05:57;;;;;;;0.00;0.00;;;;;;;-145.06;100.00;54003.78;10411570;28;20155;-67
2024/02/03 19:10:57;;;;;;;0.10;0.10;;;;;;;-145.06;100.00;53981.50;10412860;28;20613;-66
2024/02/03 19:15:58;;;;;;;0.00;0.00;;;;;;;-145.06;100.00;54017.94;10413153;28;20025;-67
2024/02/03 19:20:58;;;;;;;0.00;0.00;;;;;;;-145.06;100.00;54038.19;10410963;28;20017;-66
2024/02/03 19:25:59;;;;;;;0.00;0.00;;;;;;;-145.06;100.00;54052.38;10410580;28;20494;-66
2024/02/03 19:30:59;;;;;;;0.10;0.10;;;;;;;-145.06;100.00;54058.44;10410309;28;20407;-67
2024/02/03 19:36:00;;;;;;;0.10;0.10;;;;;;;-145.06;100.00;54034.16;10409800;28;20025;-66
2024/02/03 19:41:00;;;;;;;0.00;0.00;;;;;;;-145.06;100.00;54064.53;10411925;28;20021;-68
2024/02/03 19:46:00;;;;;;;0.07;0.07;;;;;;;-145.06;100.00;54062.50;10411960;28;20018;-68
2024/02/03 19:51:03;;;;;;;0.00;0.00;;;;;;;-145.06;100.00;54058.44;10409836;28;20032;-68
2024/02/03 19:56:05;;;;;;;0.10;0.10;;;;;;;-145.06;100.00;54068.56;10409800;28;20024;-67
2024/02/03 20:01:06;;;;;;;0.00;0.00;;;;;;;-145.06;100.00;54098.97;10409032;28;20025;-68
2024/02/03 20:06:06;;;;;;;0.00;0.00;;;;;;;-145.06;100.00;54076.69;10411013;28;20022;-68
2024/02/03 20:11:07;;;;;;;0.00;0.00;;;;;;;-145.06;100.00;54109.09;10409796;28;20494;-67
2024/02/03 20:16:08;;;;;;;0.00;0.00;;;;;;;-145.06;100.00;54115.16;10410250;28;20383;-69
2024/02/03 20:21:09;;;;;;;0.00;0.00;;;;;;;-145.06;100.00;54103.00;10410237;28;20256;-68
2024/02/03 20:26:09;;;;;;;0.00;0.00;;;;;;;-145.06;100.00;54123.25;10410299;28;20031;-67
2024/02/03 20:31:10;;;;;;;0.00;0.00;;;;;;;-145.06;100.00;54141.50;10409907;28;20029;-66
2024/02/03 20:36:12;;;;;;;0.10;0.10;;;;;;;-145.06;100.00;54119.22;10409828;28;20292;-66
2024/02/03 20:41:20;;;;;;;0.00;0.00;;;;;;;-145.06;100.00;54157.69;10410218;28;20375;-66
2024/02/03 20:46:20;;;;;;;0.00;0.00;;;;;;;-145.06;100.00;54139.47;10409603;28;20033;-66
2024/02/03 20:51:22;;;;;;;0.00;0.00;;;;;;;-145.06;100.00;54139.47;10407127;28;20026;-65
2024/02/03 20:56:22;;;;;;;0.00;0.00;;;;;;;-145.06;100.00;54107.06;10403473;28;20045;-67
2024/02/03 21:01:22;;;;;;;0.05;0.05;;;;;;;-145.06;100.00;54137.44;10405428;28;20067;-66
2024/02/03 21:06:23;;;;;;;0.00;0.00;;;;;;;-145.06;100.00;54145.53;10408768;28;20029;-66
2024/02/03 21:11:25;;;;;;;0.10;0.10;;;;;;;-145.06;100.00;54113.13;10408130;28;20287;-66
2024/02/03 21:16:28;;;;;;;0.00;0.00;;;;;;;-145.06;100.00;54155.66;10406547;28;20040;-66
2024/02/03 21:21:37;;;;;;;0.00;0.00;;;;;;;-145.06;100.00;54143.50;10406618;28;20018;-66
2024/02/03 21:26:37;;;;;;;0.00;0.00;;;;;;;-145.06;100.00;54111.09;10407822;28;20553;-66
2024/02/03 21:31:37;;;;;;;0.10;0.10;;;;;;;-145.06;100.00;54115.16;10405751;28;20036;-66
2024/02/03 21:36:38;;;;;;;0.10;0.10;;;;;;;-145.06;100.00;54113.13;10407100;28;20033;-66
2024/02/03 21:41:38;;;;;;;0.00;0.00;;;;;;;-145.06;100.00;54139.47;10406234;28;20490;-66
2024/02/03 21:46:39;;;;;;;0.00;0.00;;;;;;;-145.06;100.00;54107.06;10406954;28;20026;-67
2024/02/03 21:51:39;;;;;;;0.10;0.10;;;;;;;-145.06;100.00;54088.84;10406630;28;20424;-67
2024/02/03 21:56:39;;;;;;;0.00;0.00;;;;;;;-145.06;100.00;54125.28;10406213;28;20056;-67
2024/02/03 22:01:40;;;;;;;0.00;0.00;;;;;;;-145.06;100.00;54117.19;10406224;28;20037;-67
2024/02/03 22:06:45;;;;;;;0.00;0.00;;;;;;;-145.06;100.00;54123.25;10404316;28;20892;-67
2024/02/03 22:11:45;;;;;;;0.00;0.00;;;;;;;-145.06;100.00;54103.00;10406164;28;20079;-67
2024/02/03 22:16:47;;;;;;;0.00;0.00;;;;;;;-145.06;100.00;54111.09;10405229;28;20459;-67
2024/02/03 22:21:47;;;;;;;0.08;0.08;;;;;;;-145.06;100.00;54074.66;10406039;28;20025;-67
2024/02/03 22:26:48;;;;;;;0.00;0.00;;;;;;;-145.06;100.00;54125.28;10404664;28;20021;-66
2024/02/03 22:31:49;;;;;;;0.10;0.10;;;;;;;-145.06;100.00;54092.88;10405625;28;20417;-67